Time;durP1;ratioP1;P1;durP2;ratioP2;P2;SDS_P1;SDS_P2;PMS_P1;PMS_P2;Temp;Humidity;BMP_temperature;BMP_pressure;BME280_temperature;BME280_humidity;BME280_pressure;Samples;Min_cycle;Max_cycle;Signal;HPM_P1;HPM_P2
2021/11/21 00:02:21;;;;;;;;;;;14.20;99.90;;;;;;5057763;28;818;-51
2021/11/21 00:04:50;;;;;;;;;;;14.20;99.90;;;;;;5057235;28;1906;-51
2021/11/21 00:07:16;;;;;;;;;;;14.20;99.90;;;;;;5057042;28;1127;-51
2021/11/21 00:09:42;;;;;;;;;;;14.20;99.90;;;;;;5057332;28;757;-51
2021/11/21 00:12:08;;;;;;;;;;;14.20;99.90;;;;;;5057429;28;773;-51
2021/11/21 00:14:34;;;;;;;;;;;14.20;99.90;;;;;;5071873;28;798;-51
2021/11/21 00:17:02;;;;;;;;;;;14.20;99.90;;;;;;5044568;28;913;-51
2021/11/21 00:19:28;;;;;;;;;;;14.20;99.90;;;;;;5056616;28;1142;-51
2021/11/21 00:21:55;;;;;;;;;;;14.20;99.90;;;;;;5056879;28;856;-51
2021/11/21 00:24:22;;;;;;;;;;;14.20;99.90;;;;;;5057107;28;1902;-51
2021/11/21 00:26:48;;;;;;;;;;;14.20;99.90;;;;;;5057261;28;906;-51
2021/11/21 00:29:14;;;;;;;;;;;14.20;99.90;;;;;;5057207;28;872;-51
2021/11/21 00:31:40;;;;;;;;;;;14.20;99.90;;;;;;5056975;28;875;-51
2021/11/21 00:34:06;;;;;;;;;;;14.20;99.90;;;;;;5056245;28;806;-51
2021/11/21 00:36:32;;;;;;;;;;;14.10;99.90;;;;;;5039301;28;834;-51
2021/11/21 00:38:59;;;;;;;;;;;14.10;99.90;;;;;;5052959;28;1150;-51
2021/11/21 00:41:27;;;;;;;;;;;14.10;99.90;;;;;;5056159;28;1002;-51
2021/11/21 00:43:52;;;;;;;;;;;14.20;99.90;;;;;;5032770;28;1914;-51
2021/11/21 00:46:18;;;;;;;;;;;14.10;99.90;;;;;;5066599;28;948;-51
2021/11/21 00:48:45;;;;;;;;;;;14.10;99.90;;;;;;5056979;28;833;-51
2021/11/21 00:51:11;;;;;;;;;;;14.10;99.90;;;;;;5056569;28;1148;-51
2021/11/21 00:53:41;;;;;;;;;;;14.10;99.90;;;;;;5056734;28;858;-51
2021/11/21 00:56:09;;;;;;;;;;;14.10;99.90;;;;;;5056952;28;778;-51
2021/11/21 00:58:36;;;;;;;;;;;14.10;99.90;;;;;;5055909;28;1009;-51
2021/11/21 01:01:04;;;;;;;;;;;14.10;99.90;;;;;;5056718;28;842;-51
2021/11/21 01:03:30;;;;;;;;;;;14.10;99.90;;;;;;5057044;28;837;-51
2021/11/21 01:05:56;;;;;;;;;;;14.10;99.90;;;;;;5056986;28;1910;-51
2021/11/21 01:08:23;;;;;;;;;;;14.00;99.90;;;;;;5056753;28;816;-51
2021/11/21 01:10:51;;;;;;;;;;;14.00;99.90;;;;;;5056604;28;908;-49
2021/11/21 01:13:17;;;;;;;;;;;14.00;99.90;;;;;;5063006;28;872;-50
2021/11/21 01:15:43;;;;;;;;;;;14.00;99.90;;;;;;5071999;28;754;-51
2021/11/21 01:18:11;;;;;;;;;;;14.00;99.90;;;;;;5057108;28;1101;-51
2021/11/21 01:20:40;;;;;;;;;;;14.00;99.90;;;;;;5075455;28;757;-51
2021/11/21 01:23:09;;;;;;;;;;;14.00;99.90;;;;;;5075715;28;823;-51
2021/11/21 01:25:37;;;;;;;;;;;14.00;99.90;;;;;;5025962;28;1983;-51
2021/11/21 01:28:05;;;;;;;;;;;14.00;99.90;;;;;;5078593;28;738;-51
2021/11/21 01:30:31;;;;;;;;;;;14.00;99.90;;;;;;5078645;28;1025;-61
2021/11/21 01:32:58;;;;;;;;;;;14.00;99.90;;;;;;5074888;28;751;-51
2021/11/21 01:35:25;;;;;;;;;;;14.00;99.90;;;;;;5074970;28;900;-51
2021/11/21 01:37:51;;;;;;;;;;;13.90;99.90;;;;;;5075433;28;808;-51
2021/11/21 01:40:18;;;;;;;;;;;13.90;99.90;;;;;;5069207;28;838;-51
2021/11/21 01:42:46;;;;;;;;;;;13.90;99.90;;;;;;5059685;28;1450;-51
2021/11/21 01:45:12;;;;;;;;;;;13.90;99.90;;;;;;5078191;28;1909;-51
2021/11/21 01:47:41;;;;;;;;;;;13.90;99.90;;;;;;5061807;28;1027;-51
2021/11/21 01:50:10;;;;;;;;;;;13.90;99.90;;;;;;5060508;28;776;-51
2021/11/21 01:52:38;;;;;;;;;;;13.90;99.90;;;;;;5042930;28;878;-51
2021/11/21 01:55:06;;;;;;;;;;;13.90;99.90;;;;;;5025327;28;1159;-50
2021/11/21 01:57:32;;;;;;;;;;;13.90;99.90;;;;;;5025344;28;957;-51
2021/11/21 02:00:01;;;;;;;;;;;13.90;99.90;;;;;;5059943;28;930;-51
2021/11/21 02:02:28;;;;;;;;;;;13.90;99.90;;;;;;5025426;28;990;-51
2021/11/21 02:04:54;;;;;;;;;;;13.80;99.90;;;;;;5074905;28;1906;-51
2021/11/21 02:07:20;;;;;;;;;;;13.80;99.90;;;;;;5078455;28;802;-50
2021/11/21 02:09:46;;;;;;;;;;;13.80;99.90;;;;;;5077621;28;1057;-51
2021/11/21 02:12:14;;;;;;;;;;;13.80;99.90;;;;;;5078151;28;780;-51
2021/11/21 02:14:41;;;;;;;;;;;13.80;99.90;;;;;;5055767;28;798;-51
2021/11/21 02:17:08;;;;;;;;;;;13.80;99.90;;;;;;5041663;28;960;-50
2021/11/21 02:19:34;;;;;;;;;;;13.80;99.90;;;;;;5059625;28;896;-50
2021/11/21 02:22:00;;;;;;;;;;;13.80;99.90;;;;;;5059514;28;893;-50
2021/11/21 02:24:26;;;;;;;;;;;13.80;99.90;;;;;;5059360;28;1906;-50
2021/11/21 02:26:52;;;;;;;;;;;13.80;99.90;;;;;;5059482;28;916;-50
2021/11/21 02:29:18;;;;;;;;;;;13.80;99.90;;;;;;5058764;28;885;-52
2021/11/21 02:31:45;;;;;;;;;;;13.80;99.90;;;;;;5052904;28;1059;-49
2021/11/21 02:34:13;;;;;;;;;;;13.80;99.90;;;;;;5041757;28;982;-50
2021/11/21 02:36:42;;;;;;;;;;;13.80;99.90;;;;;;5053121;28;801;-50
2021/11/21 02:39:10;;;;;;;;;;;13.80;99.90;;;;;;5049236;28;1465;-50
2021/11/21 02:41:37;;;;;;;;;;;13.80;99.90;;;;;;5058417;28;826;-50
2021/11/21 02:44:03;;;;;;;;;;;13.80;99.90;;;;;;5057980;28;1913;-50
2021/11/21 02:46:31;;;;;;;;;;;13.80;99.90;;;;;;5052899;28;774;-50
2021/11/21 02:49:00;;;;;;;;;;;13.70;99.90;;;;;;5052918;28;902;-50
2021/11/21 02:51:26;;;;;;;;;;;13.70;99.90;;;;;;5041040;28;902;-50
2021/11/21 02:53:53;;;;;;;;;;;13.70;99.90;;;;;;5077398;28;865;-50
2021/11/21 02:56:19;;;;;;;;;;;13.70;99.90;;;;;;5075785;28;1046;-50
2021/11/21 02:58:46;;;;;;;;;;;13.70;99.90;;;;;;5077420;28;891;-50
2021/11/21 03:01:19;;;;;;;;;;;13.70;99.90;;;;;;5058317;28;785;-50
2021/11/21 03:03:45;;;;;;;;;;;13.70;99.90;;;;;;5064346;28;1004;-50
2021/11/21 03:06:13;;;;;;;;;;;13.70;99.90;;;;;;5007709;28;1982;-50
2021/11/21 03:08:41;;;;;;;;;;;13.70;99.90;;;;;;5058464;28;1078;-50
2021/11/21 03:11:26;;;;;;;;;;;13.70;99.90;;;;;;5058134;28;902;-50
2021/11/21 03:13:52;;;;;;;;;;;13.70;99.90;;;;;;5067207;28;913;-50
2021/11/21 03:16:18;;;;;;;;;;;13.60;99.90;;;;;;5076754;28;755;-50
2021/11/21 03:18:45;;;;;;;;;;;13.60;99.90;;;;;;5077117;28;862;-50
2021/11/21 03:21:13;;;;;;;;;;;13.70;99.90;;;;;;5076408;28;888;-50
2021/11/21 03:23:39;;;;;;;;;;;13.70;99.90;;;;;;5076381;28;1055;-50
2021/11/21 03:26:11;;;;;;;;;;;13.70;99.90;;;;;;5076502;28;1993;-50
2021/11/21 03:28:37;;;;;;;;;;;13.60;99.90;;;;;;5076613;28;786;-50
2021/11/21 03:31:03;;;;;;;;;;;13.60;99.90;;;;;;5076481;28;934;-50
2021/11/21 03:33:29;;;;;;;;;;;13.60;99.90;;;;;;5076443;28;886;-50
2021/11/21 03:35:55;;;;;;;;;;;13.60;99.90;;;;;;5058392;28;936;-50
2021/11/21 03:38:21;;;;;;;;;;;13.60;99.90;;;;;;5076627;28;852;-50
2021/11/21 03:40:48;;;;;;;;;;;13.60;99.90;;;;;;5076597;28;839;-50
2021/11/21 03:43:16;;;;;;;;;;;13.60;99.90;;;;;;5073641;28;1153;-50
2021/11/21 03:45:42;;;;;;;;;;;13.60;99.90;;;;;;5073275;28;1961;-51
2021/11/21 03:48:08;;;;;;;;;;;13.60;99.90;;;;;;5057975;28;855;-51
2021/11/21 03:50:34;;;;;;;;;;;13.60;99.90;;;;;;5057897;28;869;-50
2021/11/21 03:53:00;;;;;;;;;;;13.60;99.90;;;;;;5057933;28;849;-50
2021/11/21 03:55:27;;;;;;;;;;;13.60;99.90;;;;;;5056930;28;1198;-50
2021/11/21 03:57:53;;;;;;;;;;;13.60;99.90;;;;;;5057923;28;815;-50
2021/11/21 04:00:21;;;;;;;;;;;13.60;99.90;;;;;;5057541;28;778;-50
2021/11/21 04:02:49;;;;;;;;;;;13.60;99.90;;;;;;5057662;28;862;-50
2021/11/21 04:05:15;;;;;;;;;;;13.60;99.90;;;;;;5056930;28;1965;-50
2021/11/21 04:07:42;;;;;;;;;;;13.60;99.90;;;;;;5056656;28;806;-50
2021/11/21 04:10:09;;;;;;;;;;;13.60;99.90;;;;;;5056741;28;837;-49
2021/11/21 04:12:35;;;;;;;;;;;13.60;99.90;;;;;;5058904;28;854;-52
2021/11/21 04:15:03;;;;;;;;;;;13.60;99.90;;;;;;5076032;28;892;-50
2021/11/21 04:17:30;;;;;;;;;;;13.60;99.90;;;;;;5059608;28;817;-50
2021/11/21 04:19:55;;;;;;;;;;;13.50;99.90;;;;;;5057349;28;960;-50
2021/11/21 04:22:22;;;;;;;;;;;13.50;99.90;;;;;;5057295;28;868;-50
2021/11/21 04:24:49;;;;;;;;;;;13.50;99.90;;;;;;5055554;28;1949;-50
2021/11/21 04:27:15;;;;;;;;;;;13.50;99.90;;;;;;5060682;28;777;-50
2021/11/21 04:29:41;;;;;;;;;;;13.50;99.90;;;;;;5057194;28;770;-50
2021/11/21 04:32:08;;;;;;;;;;;13.50;99.90;;;;;;5057288;28;908;-50
2021/11/21 04:34:34;;;;;;;;;;;13.50;99.90;;;;;;5057177;28;957;-50
2021/11/21 04:37:00;;;;;;;;;;;13.50;99.90;;;;;;5056695;28;946;-50
2021/11/21 04:39:26;;;;;;;;;;;13.50;99.90;;;;;;5057046;28;904;-50
2021/11/21 04:41:53;;;;;;;;;;;13.50;99.90;;;;;;5060893;28;1317;-50
2021/11/21 04:44:21;;;;;;;;;;;13.50;99.90;;;;;;5071843;28;1968;-50
2021/11/21 04:46:48;;;;;;;;;;;13.50;99.90;;;;;;5046965;28;787;-50
2021/11/21 04:49:15;;;;;;;;;;;13.50;99.90;;;;;;5056894;28;880;-50
2021/11/21 04:51:41;;;;;;;;;;;13.50;99.90;;;;;;5022521;28;1010;-50
2021/11/21 04:54:14;;;;;;;;;;;13.50;99.90;;;;;;5022440;28;969;-50
2021/11/21 04:56:40;;;;;;;;;;;13.50;99.90;;;;;;5022215;28;884;-50
2021/11/21 04:59:06;;;;;;;;;;;13.50;99.90;;;;;;5056555;28;835;-50
2021/11/21 05:01:32;;;;;;;;;;;13.40;99.90;;;;;;5056235;28;959;-50
2021/11/21 05:03:58;;;;;;;;;;;13.40;99.90;;;;;;5056727;28;1015;-50
2021/11/21 05:06:24;;;;;;;;;;;13.40;99.90;;;;;;5056635;28;1898;-50
2021/11/21 05:08:52;;;;;;;;;;;13.40;99.90;;;;;;5057244;28;972;-50
2021/11/21 05:11:19;;;;;;;;;;;13.40;99.90;;;;;;5055893;28;890;-50
2021/11/21 05:13:46;;;;;;;;;;;13.40;99.90;;;;;;5062760;28;762;-50
2021/11/21 05:16:12;;;;;;;;;;;13.40;99.90;;;;;;5055455;28;1205;-51
2021/11/21 05:18:38;;;;;;;;;;;13.40;99.90;;;;;;5055469;28;893;-50
2021/11/21 05:21:04;;;;;;;;;;;13.40;99.90;;;;;;5078632;28;885;-50
2021/11/21 05:23:30;;;;;;;;;;;13.40;99.90;;;;;;5079061;28;833;-50
2021/11/21 05:25:56;;;;;;;;;;;13.40;99.90;;;;;;5078835;28;1951;-50
2021/11/21 05:28:23;;;;;;;;;;;13.40;99.90;;;;;;5078904;28;857;-50
2021/11/21 05:30:51;;;;;;;;;;;13.40;99.90;;;;;;5079047;28;764;-50
2021/11/21 05:33:18;;;;;;;;;;;13.40;99.90;;;;;;5027578;28;928;-50
2021/11/21 05:35:44;;;;;;;;;;;13.40;99.90;;;;;;5079108;28;758;-50
2021/11/21 05:38:10;;;;;;;;;;;13.40;99.90;;;;;;5061434;28;1232;-50
2021/11/21 05:40:36;;;;;;;;;;;13.30;99.90;;;;;;5069169;28;910;-50
2021/11/21 05:43:02;;;;;;;;;;;13.40;99.90;;;;;;5065111;28;1022;-50
2021/11/21 05:45:29;;;;;;;;;;;13.30;99.90;;;;;;5078330;28;1973;-51
2021/11/21 05:47:57;;;;;;;;;;;13.40;99.90;;;;;;5060459;28;974;-50
2021/11/21 05:50:24;;;;;;;;;;;13.40;99.90;;;;;;5061149;28;781;-50
2021/11/21 05:52:53;;;;;;;;;;;13.40;99.90;;;;;;5060323;28;822;-50
2021/11/21 05:55:20;;;;;;;;;;;13.40;99.90;;;;;;5042456;28;866;-50
2021/11/21 05:57:49;;;;;;;;;;;13.40;99.90;;;;;;5060327;28;835;-50
2021/11/21 06:00:17;;;;;;;;;;;13.40;99.90;;;;;;5075182;28;887;-50
2021/11/21 06:02:42;;;;;;;;;;;13.40;99.90;;;;;;5078178;28;845;-50
2021/11/21 06:05:09;;;;;;;;;;;13.40;99.90;;;;;;5078217;28;1902;-50
2021/11/21 06:07:35;;;;;;;;;;;13.40;99.90;;;;;;5078383;28;887;-50
2021/11/21 06:10:02;;;;;;;;;;;13.30;99.90;;;;;;5078334;28;1264;-50
2021/11/21 06:12:29;;;;;;;;;;;13.40;99.90;;;;;;5077854;28;893;-50
2021/11/21 06:14:56;;;;;;;;;;;13.30;99.90;;;;;;5068242;28;1081;-50
2021/11/21 06:17:23;;;;;;;;;;;13.30;99.90;;;;;;5059436;28;804;-50
2021/11/21 06:19:50;;;;;;;;;;;13.30;99.90;;;;;;5060460;28;849;-50
2021/11/21 06:22:18;;;;;;;;;;;13.30;99.90;;;;;;5028241;28;953;-51
2021/11/21 06:24:44;;;;;;;;;;;13.30;99.90;;;;;;5059529;28;1905;-50
2021/11/21 06:27:11;;;;;;;;;;;13.30;99.90;;;;;;5058768;28;919;-50
2021/11/21 06:29:37;;;;;;;;;;;13.30;99.90;;;;;;5059133;28;1586;-51
2021/11/21 06:32:04;;;;;;;;;;;13.30;99.90;;;;;;5058111;28;900;-50
2021/11/21 06:34:30;;;;;;;;;;;13.30;99.90;;;;;;5042665;28;1254;-50
2021/11/21 06:36:57;;;;;;;;;;;13.30;99.90;;;;;;5058961;28;870;-52
2021/11/21 06:39:23;;;;;;;;;;;13.30;99.90;;;;;;5059151;28;886;-51
2021/11/21 06:41:49;;;;;;;;;;;13.30;99.90;;;;;;5024627;28;1162;-50
2021/11/21 06:44:16;;;;;;;;;;;13.30;99.90;;;;;;5070903;28;1017;-50
2021/11/21 06:46:42;;;;;;;;;;;13.30;99.90;;;;;;5066194;28;1906;-50
2021/11/21 06:49:09;;;;;;;;;;;13.30;99.90;;;;;;5058791;28;862;-50
2021/11/21 06:51:41;;;;;;;;;;;13.30;99.90;;;;;;5059047;28;844;-50
2021/11/21 06:54:09;;;;;;;;;;;13.30;99.90;;;;;;5059067;28;872;-50
2021/11/21 06:56:36;;;;;;;;;;;13.30;99.90;;;;;;5058091;28;944;-50
2021/11/21 06:59:04;;;;;;;;;;;13.30;99.90;;;;;;5058590;28;1076;-51
2021/11/21 07:01:30;;;;;;;;;;;13.30;99.90;;;;;;5058068;28;1095;-51
2021/11/21 07:03:57;;;;;;;;;;;13.20;99.90;;;;;;5058251;28;1110;-51
2021/11/21 07:06:34;;;;;;;;;;;13.30;99.90;;;;;;5058675;28;1967;-50
2021/11/21 07:09:02;;;;;;;;;;;13.20;99.90;;;;;;5057982;28;844;-51
2021/11/21 07:11:28;;;;;;;;;;;13.20;99.90;;;;;;5077303;28;851;-50
2021/11/21 07:13:53;;;;;;;;;;;13.20;99.90;;;;;;5076368;28;779;-50
2021/11/21 07:16:19;;;;;;;;;;;13.20;99.90;;;;;;5069209;28;819;-51
2021/11/21 07:18:45;;;;;;;;;;;13.20;99.90;;;;;;5057950;28;811;-51
2021/11/21 07:21:11;;;;;;;;;;;13.20;99.90;;;;;;5058119;28;802;-51
2021/11/21 07:23:39;;;;;;;;;;;13.20;99.90;;;;;;5058224;28;850;-51
2021/11/21 07:26:07;;;;;;;;;;;13.20;99.90;;;;;;5058161;28;1906;-51
2021/11/21 07:28:34;;;;;;;;;;;13.30;99.90;;;;;;5058072;28;1019;-51
2021/11/21 07:31:00;;;;;;;;;;;13.30;99.90;;;;;;5023603;28;956;-51
2021/11/21 07:33:26;;;;;;;;;;;13.30;99.90;;;;;;5058532;28;914;-51
2021/11/21 07:35:53;;;;;;;;;;;13.40;99.90;;;;;;5058159;28;805;-51
2021/11/21 07:38:20;;;;;;;;;;;13.40;99.90;;;;;;5058446;28;890;-51
2021/11/21 07:40:46;;;;;;;;;;;13.50;99.90;;;;;;5058042;28;781;-51
2021/11/21 07:43:13;;;;;;;;;;;13.50;99.90;;;;;;5061021;28;1297;-51
2021/11/21 07:45:39;;;;;;;;;;;13.60;99.90;;;;;;5073140;28;1898;-52
2021/11/21 07:48:06;;;;;;;;;;;13.60;99.90;;;;;;4997214;28;1056;-51
2021/11/21 07:50:32;;;;;;;;;;;13.70;99.90;;;;;;4997172;28;964;-51
2021/11/21 07:52:58;;;;;;;;;;;13.70;99.90;;;;;;4997119;28;853;-51
2021/11/21 07:55:24;;;;;;;;;;;13.70;99.90;;;;;;4996964;28;861;-51
2021/11/21 07:57:49;;;;;;;;;;;13.80;99.90;;;;;;4997084;28;932;-50
2021/11/21 08:00:16;;;;;;;;;;;13.80;99.90;;;;;;4996888;28;861;-50
2021/11/21 08:02:43;;;;;;;;;;;13.80;99.90;;;;;;4996332;28;920;-50
2021/11/21 08:05:10;;;;;;;;;;;13.90;99.90;;;;;;4996676;28;1946;-54
2021/11/21 08:07:38;;;;;;;;;;;13.90;99.90;;;;;;4980223;28;987;-51
2021/11/21 08:10:06;;;;;;;;;;;14.00;99.90;;;;;;4980441;28;970;-52
2021/11/21 08:12:32;;;;;;;;;;;14.00;99.90;;;;;;4996730;28;1073;-51
2021/11/21 08:14:58;;;;;;;;;;;14.10;99.90;;;;;;4996745;28;784;-53
2021/11/21 08:17:24;;;;;;;;;;;14.10;99.90;;;;;;4996425;28;869;-50
2021/11/21 08:19:49;;;;;;;;;;;14.20;99.90;;;;;;5045830;28;1010;-50
2021/11/21 08:22:15;;;;;;;;;;;14.20;99.90;;;;;;5057367;28;860;-50
2021/11/21 08:24:42;;;;;;;;;;;14.20;99.90;;;;;;5039990;28;901;-50
2021/11/21 08:27:13;;;;;;;;;;;14.30;99.90;;;;;;5057049;28;1906;-50
2021/11/21 08:29:41;;;;;;;;;;;14.30;99.90;;;;;;5057302;28;782;-50
2021/11/21 08:32:07;;;;;;;;;;;14.30;99.90;;;;;;5053233;28;1011;-50
2021/11/21 08:34:33;;;;;;;;;;;14.30;99.90;;;;;;5022783;28;1040;-53
2021/11/21 08:36:59;;;;;;;;;;;14.40;99.90;;;;;;5021053;28;1362;-54
2021/11/21 08:39:25;;;;;;;;;;;14.30;99.90;;;;;;5074846;28;849;-54
2021/11/21 08:41:52;;;;;;;;;;;14.30;99.90;;;;;;5069429;28;868;-50
2021/11/21 08:44:19;;;;;;;;;;;14.30;99.90;;;;;;5074315;28;1128;-50
2021/11/21 08:46:46;;;;;;;;;;;14.40;99.90;;;;;;5076208;28;2015;-51
2021/11/21 08:49:14;;;;;;;;;;;14.30;99.90;;;;;;5077571;28;826;-50
2021/11/21 08:51:40;;;;;;;;;;;14.30;99.90;;;;;;5076564;28;847;-51
2021/11/21 08:54:08;;;;;;;;;;;14.40;99.90;;;;;;5076855;28;938;-54
2021/11/21 08:56:34;;;;;;;;;;;14.30;99.90;;;;;;5041671;28;1022;-54
2021/11/21 08:59:02;;;;;;;;;;;14.30;99.90;;;;;;5057916;28;928;-50
2021/11/21 09:01:28;;;;;;;;;;;14.40;99.90;;;;;;5075180;28;860;-54
2021/11/21 09:03:54;;;;;;;;;;;14.30;99.90;;;;;;5075458;28;882;-54
2021/11/21 09:06:20;;;;;;;;;;;14.30;99.90;;;;;;5075998;28;1914;-53
2021/11/21 09:08:46;;;;;;;;;;;14.30;99.90;;;;;;5074949;28;899;-54
2021/11/21 09:11:13;;;;;;;;;;;14.30;99.90;;;;;;5057234;28;911;-53
2021/11/21 09:13:40;;;;;;;;;;;14.20;99.90;;;;;;5072827;28;973;-50
2021/11/21 09:16:08;;;;;;;;;;;14.20;99.90;;;;;;5047103;28;997;-50
2021/11/21 09:18:35;;;;;;;;;;;14.20;99.90;;;;;;5022070;28;1374;-50
2021/11/21 09:21:01;;;;;;;;;;;14.20;99.90;;;;;;5056396;28;849;-50
2021/11/21 09:23:27;;;;;;;;;;;14.10;99.90;;;;;;5056599;28;767;-50
2021/11/21 09:25:53;;;;;;;;;;;14.10;99.90;;;;;;5056676;28;1906;-51
2021/11/21 09:28:20;;;;;;;;;;;14.20;99.90;;;;;;5056475;28;793;-50
2021/11/21 09:30:46;;;;;;;;;;;14.10;99.90;;;;;;5055572;28;865;-50
2021/11/21 09:33:13;;;;;;;;;;;14.10;99.90;;;;;;5020109;28;1140;-50
2021/11/21 09:35:41;;;;;;;;;;;14.10;99.90;;;;;;5056472;28;854;-50
2021/11/21 09:38:07;;;;;;;;;;;14.00;99.90;;;;;;5056354;28;754;-50
2021/11/21 09:40:32;;;;;;;;;;;14.00;99.90;;;;;;5037614;28;1387;-50
2021/11/21 09:42:59;;;;;;;;;;;14.10;99.90;;;;;;5058478;28;1199;-50
2021/11/21 09:45:25;;;;;;;;;;;14.00;99.90;;;;;;5074713;28;1973;-50
2021/11/21 09:47:55;;;;;;;;;;;14.00;99.90;;;;;;5038662;28;908;-54
2021/11/21 09:50:22;;;;;;;;;;;14.00;99.90;;;;;;5056534;28;766;-53
2021/11/21 09:52:50;;;;;;;;;;;14.00;99.90;;;;;;5055852;28;1110;-51
2021/11/21 09:55:18;;;;;;;;;;;14.00;99.90;;;;;;5051159;28;958;-50
2021/11/21 09:57:46;;;;;;;;;;;14.00;99.90;;;;;;5051709;28;846;-52
2021/11/21 10:00:16;;;;;;;;;;;14.00;99.90;;;;;;5051607;28;1579;-54
2021/11/21 10:02:49;;;;;;;;;;;14.00;99.90;;;;;;5033845;28;925;-55
2021/11/21 10:05:35;;;;;;;;;;;14.00;99.90;;;;;;5056605;28;1914;-53
2021/11/21 10:08:02;;;;;;;;;;;14.00;99.90;;;;;;5059663;28;858;-54
2021/11/21 10:10:33;;;;;;;;;;;14.10;99.90;;;;;;5058459;28;1392;-54
2021/11/21 10:12:59;;;;;;;;;;;14.00;99.90;;;;;;5066512;28;1027;-53
2021/11/21 10:15:25;;;;;;;;;;;14.10;99.90;;;;;;5077498;28;855;-53
2021/11/21 10:17:54;;;;;;;;;;;14.10;99.90;;;;;;5061569;28;804;-54
2021/11/21 10:20:22;;;;;;;;;;;14.10;99.90;;;;;;5061579;28;785;-53
2021/11/21 10:22:54;;;;;;;;;;;14.10;99.90;;;;;;5061622;28;823;-54
2021/11/21 10:25:38;;;;;;;;;;;14.10;99.90;;;;;;5061450;28;1921;-55
2021/11/21 10:28:23;;;;;;;;;;;14.10;99.90;;;;;;5060221;28;833;-55
2021/11/21 10:31:18;;;;;;;;;;;14.20;99.90;;;;;;5059332;28;811;-55
2021/11/21 10:33:58;;;;;;;;;;;14.10;99.90;;;;;;4961327;28;1268;-55
2021/11/21 10:36:26;;;;;;;;;;;14.10;99.90;;;;;;4956075;28;1131;-55
2021/11/21 10:38:54;;;;;;;;;;;14.20;99.90;;;;;;4957161;28;948;-55
2021/11/21 10:41:23;;;;;;;;;;;14.20;99.90;;;;;;4925591;28;1229;-53
2021/11/21 10:44:07;;;;;;;;;;;14.20;99.90;;;;;;4978109;28;1195;-51
2021/11/21 10:46:38;;;;;;;;;;;14.20;99.90;;;;;;4979595;28;1910;-51
2021/11/21 10:49:23;;;;;;;;;;;14.20;99.90;;;;;;4988457;28;1438;-51
2021/11/21 10:52:10;;;;;;;;;;;14.20;99.90;;;;;;4996785;28;1039;-51
2021/11/21 10:54:39;;;;;;;;;;;14.20;99.90;;;;;;4983416;28;1163;-53
2021/11/21 10:57:07;;;;;;;;;;;14.20;99.90;;;;;;4996240;28;909;-53
2021/11/21 10:59:33;;;;;;;;;;;14.20;99.90;;;;;;4996138;28;883;-53
2021/11/21 11:02:06;;;;;;;;;;;14.20;99.90;;;;;;4996397;28;944;-53
2021/11/21 11:04:32;;;;;;;;;;;14.20;99.90;;;;;;4983539;28;921;-51
2021/11/21 11:07:26;;;;;;;;;;;14.20;99.90;;;;;;4978208;28;1966;-51
2021/11/21 11:09:54;;;;;;;;;;;14.20;99.90;;;;;;5008876;28;1367;-55
2021/11/21 11:12:22;;;;;;;;;;;14.20;99.90;;;;;;5058927;28;783;-54
2021/11/21 11:14:50;;;;;;;;;;;14.20;99.90;;;;;;5073994;28;1572;-50
2021/11/21 11:17:17;;;;;;;;;;;14.20;99.90;;;;;;5061667;28;754;-53
2021/11/21 11:19:44;;;;;;;;;;;14.20;99.90;;;;;;5058876;28;842;-54
2021/11/21 11:22:11;;;;;;;;;;;14.20;99.90;;;;;;5058659;28;807;-53
2021/11/21 11:24:40;;;;;;;;;;;14.20;99.90;;;;;;5058306;28;1064;-55
2021/11/21 11:27:12;;;;;;;;;;;14.20;99.90;;;;;;5058346;28;1898;-53
2021/11/21 11:29:42;;;;;;;;;;;14.20;99.90;;;;;;5058521;28;852;-53
2021/11/21 11:32:28;;;;;;;;;;;14.20;99.90;;;;;;5058357;28;891;-53
2021/11/21 11:34:57;;;;;;;;;;;14.20;99.90;;;;;;5057102;28;878;-54
2021/11/21 11:37:34;;;;;;;;;;;14.20;99.90;;;;;;5057963;28;878;-53
2021/11/21 11:40:00;;;;;;;;;;;14.20;99.90;;;;;;5058383;28;837;-55
2021/11/21 11:42:39;;;;;;;;;;;14.20;99.90;;;;;;5058955;28;865;-53
2021/11/21 11:45:07;;;;;;;;;;;14.10;99.90;;;;;;5076118;28;1155;-50
2021/11/21 11:47:33;;;;;;;;;;;14.20;99.90;;;;;;5059050;28;1919;-53
2021/11/21 11:50:00;;;;;;;;;;;14.20;99.90;;;;;;5057468;28;964;-54
2021/11/21 11:52:44;;;;;;;;;;;14.10;99.90;;;;;;5057347;28;984;-53
2021/11/21 11:55:10;;;;;;;;;;;14.20;99.90;;;;;;5058320;28;956;-53
2021/11/21 11:57:37;;;;;;;;;;;14.20;99.90;;;;;;5057420;28;834;-51
2021/11/21 12:00:22;;;;;;;;;;;14.20;99.90;;;;;;5057004;28;846;-55
2021/11/21 12:02:49;;;;;;;;;;;14.20;99.90;;;;;;5076466;28;866;-54
2021/11/21 12:05:28;;;;;;;;;;;14.20;99.90;;;;;;5076426;28;789;-54
2021/11/21 12:08:10;;;;;;;;;;;14.20;99.90;;;;;;5052936;28;915;-51
2021/11/21 12:10:56;;;;;;;;;;;14.20;99.90;;;;;;5057705;28;985;-54
2021/11/21 12:13:30;;;;;;;;;;;14.20;99.90;;;;;;5063020;28;842;-51
2021/11/21 12:16:00;;;;;;;;;;;14.20;99.90;;;;;;5070481;28;868;-51
2021/11/21 12:18:45;;;;;;;;;;;14.20;99.90;;;;;;5075684;28;863;-53
2021/11/21 12:21:11;;;;;;;;;;;14.30;99.90;;;;;;5061482;28;840;-51
2021/11/21 12:23:43;;;;;;;;;;;14.30;99.90;;;;;;5064374;28;1055;-54
2021/11/21 12:26:29;;;;;;;;;;;14.30;99.90;;;;;;5075234;28;1902;-51
2021/11/21 12:29:13;;;;;;;;;;;14.30;99.90;;;;;;5074485;28;900;-51
2021/11/21 12:31:40;;;;;;;;;;;14.30;99.90;;;;;;5058046;28;1033;-51
2021/11/21 12:34:26;;;;;;;;;;;14.30;99.90;;;;;;5034418;28;952;-53
2021/11/21 12:37:26;;;;;;;;;;;14.30;99.90;;;;;;5057438;28;810;-54
2021/11/21 12:39:57;;;;;;;;;;;14.30;99.90;;;;;;4998661;28;1241;-54
2021/11/21 12:42:30;;;;;;;;;;;14.30;99.90;;;;;;5039049;28;953;-51
2021/11/21 12:45:04;;;;;;;;;;;14.40;99.90;;;;;;5053845;28;1137;-51
2021/11/21 12:47:30;;;;;;;;;;;14.40;99.90;;;;;;5022300;28;1965;-51
2021/11/21 12:49:56;;;;;;;;;;;14.40;99.90;;;;;;5056971;28;764;-53
2021/11/21 12:52:22;;;;;;;;;;;14.40;99.90;;;;;;5056600;28;941;-54
2021/11/21 12:54:51;;;;;;;;;;;14.40;99.90;;;;;;5056255;28;1318;-51
2021/11/21 12:57:17;;;;;;;;;;;14.50;99.90;;;;;;5056578;28;1002;-51
2021/11/21 12:59:57;;;;;;;;;;;14.50;99.90;;;;;;5056417;28;1257;-51
2021/11/21 13:02:28;;;;;;;;;;;14.50;99.90;;;;;;5056662;28;738;-51
2021/11/21 13:04:59;;;;;;;;;;;14.50;99.90;;;;;;5056759;28;1266;-51
2021/11/21 13:07:25;;;;;;;;;;;14.50;99.90;;;;;;5002514;28;1910;-51
2021/11/21 13:09:57;;;;;;;;;;;14.50;99.90;;;;;;5056292;28;854;-53
2021/11/21 13:12:30;;;;;;;;;;;14.40;99.90;;;;;;5056434;28;835;-54
2021/11/21 13:14:57;;;;;;;;;;;14.50;99.90;;;;;;5056826;28;990;-51
2021/11/21 13:17:23;;;;;;;;;;;14.40;99.90;;;;;;5058138;28;803;-51
2021/11/21 13:20:15;;;;;;;;;;;14.40;99.90;;;;;;5056558;28;865;-53
2021/11/21 13:22:52;;;;;;;;;;;14.40;99.90;;;;;;5055977;28;1005;-55
2021/11/21 13:25:36;;;;;;;;;;;14.40;99.90;;;;;;5056006;28;963;-54
2021/11/21 13:28:21;;;;;;;;;;;14.40;99.90;;;;;;5055691;28;1902;-54
2021/11/21 13:30:47;;;;;;;;;;;14.40;99.90;;;;;;5056489;28;865;-51
2021/11/21 13:33:15;;;;;;;;;;;14.30;99.90;;;;;;5056311;28;908;-51
2021/11/21 13:35:42;;;;;;;;;;;14.40;99.90;;;;;;5055796;28;897;-51
2021/11/21 13:38:10;;;;;;;;;;;14.30;99.90;;;;;;5056012;28;831;-54
2021/11/21 13:40:40;;;;;;;;;;;14.30;99.90;;;;;;5057903;28;763;-53
2021/11/21 13:43:10;;;;;;;;;;;14.30;99.90;;;;;;5065387;28;1030;-53
2021/11/21 13:45:39;;;;;;;;;;;14.30;99.90;;;;;;5076095;28;1167;-53
2021/11/21 13:48:26;;;;;;;;;;;14.30;99.90;;;;;;5060068;28;1961;-51
2021/11/21 13:50:53;;;;;;;;;;;14.30;99.90;;;;;;5059734;28;1335;-51
2021/11/21 13:53:19;;;;;;;;;;;14.30;99.90;;;;;;5042444;28;1355;-54
2021/11/21 13:55:45;;;;;;;;;;;14.20;99.90;;;;;;5059871;28;893;-51
2021/11/21 13:58:32;;;;;;;;;;;14.20;99.90;;;;;;5060153;28;880;-51
2021/11/21 14:01:18;;;;;;;;;;;14.20;99.90;;;;;;5060398;28;791;-53
2021/11/21 14:03:46;;;;;;;;;;;14.20;99.90;;;;;;5077807;28;1002;-53
2021/11/21 14:06:14;;;;;;;;;;;14.20;99.90;;;;;;5078234;28;1914;-54
2021/11/21 14:08:49;;;;;;;;;;;14.20;99.90;;;;;;5077753;28;971;-54
2021/11/21 14:11:16;;;;;;;;;;;14.20;99.90;;;;;;5054029;28;825;-53
2021/11/21 14:13:44;;;;;;;;;;;14.20;99.90;;;;;;5059514;28;960;-51
2021/11/21 14:16:14;;;;;;;;;;;14.20;99.90;;;;;;5078576;28;815;-51
2021/11/21 14:18:45;;;;;;;;;;;14.20;99.90;;;;;;5054490;28;808;-51
2021/11/21 14:21:16;;;;;;;;;;;14.20;99.90;;;;;;5041955;28;1118;-51
2021/11/21 14:23:44;;;;;;;;;;;14.20;99.90;;;;;;5059219;28;781;-51
2021/11/21 14:26:12;;;;;;;;;;;14.20;99.90;;;;;;5059346;28;1914;-54
2021/11/21 14:28:57;;;;;;;;;;;14.20;99.90;;;;;;5025499;28;883;-51
2021/11/21 14:31:25;;;;;;;;;;;14.10;99.90;;;;;;5041181;28;887;-51
2021/11/21 14:33:52;;;;;;;;;;;14.10;99.90;;;;;;5059515;28;770;-51
2021/11/21 14:36:20;;;;;;;;;;;14.10;99.90;;;;;;5058485;28;893;-51
2021/11/21 14:38:56;;;;;;;;;;;14.10;99.90;;;;;;5059017;28;921;-51
2021/11/21 14:41:22;;;;;;;;;;;14.10;99.90;;;;;;5059412;28;809;-51
2021/11/21 14:43:50;;;;;;;;;;;14.20;99.90;;;;;;5070155;28;1210;-51
2021/11/21 14:46:17;;;;;;;;;;;14.10;99.90;;;;;;5070507;28;1914;-51
2021/11/21 14:48:48;;;;;;;;;;;14.20;99.90;;;;;;5059094;28;786;-51